咨询热线:4008-208-397

国际时间

今日汇率

  1. 0.0672      费用试算
  2. 7.2880      费用试算

“卖家:necessity_27”的拍卖商品列表

共计:50 件

(1 | 2 | 3 | 4 | 5 | 6 | 7)
商品说明 现在价格 直接购买 出价数 结束时间
NEEWER SPEEDLITE 750II スピードライト ニコン用 #美品 3000.00 -- 0 2017-03-30 22:02:16
ISCO-GOTTINGEN 50mm F1.9 REGULA-WESTROMAT #M42マウントレンズ 10000.00 -- 0 2017-03-30 22:02:36
kenko mc uv SL-39 67mm フィルター 1000.00 1000.00 0 2017-03-30 22:12:31
kenko mc uv SL-39 58mm フィルター 750.00 750.00 0 2017-03-30 22:12:33
インダスター Industar-50-2 50mm F3.5 M42マウント 8680.00 8680.00 0 2017-03-30 22:12:34
ライカフード 12564 (R50mmF2/R35mm F2.8用フード) 5000.00 5000.00 0 2017-03-30 22:12:36
富士フィルム FUJINON 55mm F1.8 M42マウント #美品 10000.00 -- 0 2017-03-30 22:12:39
canon 58mm G1 3x フィルター 1500.00 1500.00 0 2017-03-30 22:12:39
~ペンタックス~PENTAX S80-160 ポーチ 750.00 750.00 0 2017-03-30 22:12:40
オリンパス OLYMPUS ZUIKO MC AUTO-MACRO 50mm F3.5 OM-SYSTEM 9800.00 9800.00 0 2017-03-30 22:12:41
ケンコー KENKO MC SKYLIGHT (1B) 52mm フィルター 500.00 500.00 0 2017-03-30 22:12:42
~新同品~レンズフード CANON ES-71 II 2000.00 2000.00 0 2017-03-30 22:12:42
ハクバ HAKUBA MC LENS GUARD 58mm フィルター 500.00 500.00 0 2017-03-30 22:12:43
~コンタックス~CONTAX 46mm P-filter 1500.00 1500.00 0 2017-03-30 22:12:44
ライカ革ケース LEICA【7】 2000.00 -- 0 2017-03-30 22:12:45
① canon uv 1x 58mm フィルター 1000.00 1000.00 0 2017-03-30 22:12:47
メタルフード minolta D57KB 1000.00 -- 0 2017-03-30 22:12:48
ケンコー KENKO MC UV SL-39 72mm フィルター 1000.00 1000.00 0 2017-03-30 22:12:48
canon UV 1X 52mm フィルター 500.00 500.00 0 2017-03-30 22:12:50
#未使用 NIKON FF-CP11 ND4X フィルター 1750.00 1750.00 0 2017-03-30 22:12:50
キヤノン CANON 革ケース フィルムカメラ用 1500.00 1500.00 0 2017-03-30 22:12:51
ライカ革ケース LEICA【4】 2000.00 -- 0 2017-03-30 22:12:53
kenko mc SKYLIGHT (1B) 72mm フィルター 1000.00 1000.00 0 2017-03-30 22:12:56
~#ペンタックス~PENTAX S80-160 ポーチ 750.00 750.00 0 2017-03-30 22:12:56
Green.L製 close-up +3 67mm フィルター 1250.00 1250.00 0 2017-03-30 22:12:59
canon 48mm G1 3x フィルター 1250.00 1250.00 0 2017-03-30 22:13:00
ケンコー kenko RED ENHANCER NO.1 67mm フィルター 1250.00 1250.00 0 2017-03-30 22:13:01
未使用 NIKON FF-CP10 ND4X フィルター 1750.00 1750.00 0 2017-03-30 22:13:02
~美品~ニコン NIKON FE・FM用 NPC PROBACKⅡ 送料無料 6000.00 6000.00 0 2017-03-30 22:13:03
Green.L製 star 67mm フィルター 1000.00 1000.00 0 2017-03-30 22:13:04
ニコン NIKON L37c 62mm フィルター 750.00 750.00 0 2017-03-30 22:13:05
takumar 135mm f3.5用フード 1250.00 1250.00 0 2017-03-30 22:13:07
kenko mc protector 72mm フィルター 1250.00 1250.00 0 2017-03-30 22:13:08
日本工学 NIPPON KOGAKU フジマーク プラケース 3250.00 -- 0 2017-03-30 22:13:08
ニコン NIKON SB-27 美品 2600.00 2600.00 0 2017-03-30 22:13:11
コンタックス CONTAX T3 T3D 取り扱い説明書 1250.00 1250.00 0 2017-03-30 22:13:11
~未使用~ニコン NIKON EP-5 コネクター 2500.00 -- 0 2017-03-30 22:13:13
canon t-60-2 フード 1000.00 1000.00 0 2017-03-30 22:13:13
~ニコン~NIKON HR-2 ラバーフード 500.00 500.00 0 2017-03-30 22:13:14
ケンコー kenko MC SKYLIGHT (1B) 77mm フィルター 1250.00 1250.00 0 2017-03-30 22:13:15
①~アダプトール2~オリンパス OMマウント用 1750.00 1750.00 0 2017-03-30 22:13:17
(2)takumar メタルフード 135/3.5 150/4 200/5.6用 500.00 500.00 0 2017-03-30 22:13:17
Green.L製 soft 67mm フィルター 1000.00 1000.00 0 2017-03-30 22:13:19
ブロニカ BRONICA TELE-CONVERTER S 2X #美品 4500.00 4500.00 0 2017-03-30 22:13:20
~キャノンアタブター付~Domiplan 50mm F2.8 ゼブラ 10800.00 10800.00 0 2017-03-30 22:13:20
kenko circular PL 72mm フィルター 2000.00 2000.00 0 2017-03-30 22:13:21
マルミ marumi 58mm MC-Y2 カラーフィルター 750.00 750.00 0 2017-03-30 22:13:22
未使用 NIKON FF-CP11 ND4X フィルター 1750.00 1750.00 0 2017-03-30 22:13:24
ライカ革ケース LEICA【9】 2000.00 -- 0 2017-03-30 22:13:24
マルミ marumi 72mm MC-1B フィルター 1000.00 1000.00 0 2017-03-30 22:13:25
 
搜寻结果:共页,项商品 
(1 | 2 | 3 | 4 | 5 | 6 | 7)